createdAt,value
2018-01-08T00:00:11.152Z,4.03
2018-01-08T00:02:39.355Z,4.47
2018-01-08T00:05:07.351Z,3.90
2018-01-08T00:07:36.383Z,3.62
2018-01-08T00:10:04.391Z,3.80
2018-01-08T00:12:32.445Z,4.53
2018-01-08T00:15:00.493Z,4.65
2018-01-08T00:17:28.516Z,3.62
2018-01-08T00:19:56.531Z,3.42
2018-01-08T00:22:24.538Z,4.32
2018-01-08T00:24:53.560Z,3.83
2018-01-08T00:27:21.559Z,4.00
2018-01-08T00:29:49.548Z,4.10
2018-01-08T00:32:17.546Z,3.47
2018-01-08T00:34:45.549Z,3.78
2018-01-08T00:37:13.543Z,4.18
2018-01-08T00:39:41.526Z,4.53
2018-01-08T00:42:09.526Z,3.67
2018-01-08T00:44:37.509Z,4.75
2018-01-08T00:47:05.518Z,4.35
2018-01-08T00:49:33.537Z,4.97
2018-01-08T00:52:01.561Z,4.15
2018-01-08T00:54:29.618Z,5.10
2018-01-08T00:56:57.637Z,3.75
2018-01-08T00:59:25.681Z,4.10
2018-01-08T01:01:53.680Z,4.85
2018-01-08T01:04:21.715Z,4.47
2018-01-08T01:06:49.730Z,4.00
2018-01-08T01:09:17.717Z,4.72
2018-01-08T01:11:46.817Z,4.75
2018-01-08T01:14:14.804Z,4.95
2018-01-08T01:16:42.835Z,4.25
2018-01-08T01:19:10.890Z,4.45
2018-01-08T01:21:38.898Z,4.30
2018-01-08T01:24:06.872Z,4.72
2018-01-08T01:26:34.872Z,4.55
2018-01-08T01:29:02.874Z,4.85
2018-01-08T01:31:30.855Z,4.18
2018-01-08T01:33:58.852Z,4.75
2018-01-08T01:36:26.870Z,4.32
2018-01-08T01:38:54.910Z,5.65
2018-01-08T01:41:22.901Z,3.80
2018-01-08T01:43:50.934Z,4.50
2018-01-08T01:46:18.961Z,4.85
2018-01-08T01:48:46.957Z,5.40
2018-01-08T01:51:14.941Z,5.20
2018-01-08T01:53:42.912Z,4.53
2018-01-08T01:56:10.925Z,4.22
2018-01-08T01:58:38.909Z,5.15
2018-01-08T02:01:06.916Z,4.12
2018-01-08T02:03:34.913Z,5.37
2018-01-08T02:06:02.920Z,5.72
2018-01-08T02:08:30.949Z,5.32
2018-01-08T02:10:58.959Z,4.55
2018-01-08T02:13:26.981Z,5.55
2018-01-08T02:15:54.993Z,4.85
2018-01-08T02:18:22.988Z,5.80
2018-01-08T02:20:50.988Z,5.35
2018-01-08T02:23:19.001Z,5.55
2018-01-08T02:25:46.989Z,4.20
2018-01-08T02:28:15.008Z,4.55
2018-01-08T02:30:43.022Z,4.57
2018-01-08T02:33:11.054Z,4.37
2018-01-08T02:35:39.070Z,3.83
2018-01-08T02:38:07.082Z,5.37
2018-01-08T02:40:35.102Z,4.40
2018-01-08T02:43:03.108Z,4.70
2018-01-08T02:45:31.093Z,5.37
2018-01-08T02:47:59.130Z,4.90
2018-01-08T02:50:27.097Z,4.85
2018-01-08T02:52:55.061Z,6.07
2018-01-08T02:55:23.111Z,4.72
2018-01-08T02:57:51.136Z,5.05
2018-01-08T03:00:20.251Z,4.80
2018-01-08T03:02:48.249Z,5.15
2018-01-08T03:05:16.269Z,4.90
2018-01-08T03:07:44.294Z,4.87
2018-01-08T03:10:12.320Z,4.95
2018-01-08T03:12:40.337Z,5.03
2018-01-08T03:15:08.340Z,4.72
2018-01-08T03:17:36.374Z,5.90
2018-01-08T03:20:04.455Z,5.78
2018-01-08T03:22:32.480Z,4.87
2018-01-08T03:25:00.501Z,5.47
2018-01-08T03:27:28.510Z,5.22
2018-01-08T03:29:56.472Z,5.62
2018-01-08T03:32:24.492Z,5.20
2018-01-08T03:34:52.497Z,4.80
2018-01-08T03:37:20.535Z,5.55
2018-01-08T03:39:48.540Z,5.65
2018-01-08T03:42:16.521Z,6.43
2018-01-08T03:44:44.558Z,4.68
2018-01-08T03:47:12.582Z,5.90
2018-01-08T03:49:40.568Z,5.57
2018-01-08T03:52:08.543Z,6.25
2018-01-08T03:54:36.566Z,6.37
2018-01-08T03:57:04.560Z,6.20
2018-01-08T03:59:32.550Z,6.12
2018-01-08T04:02:00.594Z,5.85
2018-01-08T04:04:28.602Z,6.60
2018-01-08T04:06:56.623Z,7.47
2018-01-08T04:09:24.653Z,6.90
2018-01-08T04:11:52.681Z,5.50
2018-01-08T04:14:20.686Z,6.10
2018-01-08T04:16:48.709Z,6.78
2018-01-08T04:19:16.711Z,7.50
2018-01-08T04:21:44.713Z,5.68
2018-01-08T04:24:12.715Z,6.65
2018-01-08T04:26:40.721Z,6.47
2018-01-08T04:29:08.676Z,7.97
2018-01-08T04:31:36.667Z,6.72
2018-01-08T04:34:04.673Z,7.00
2018-01-08T04:36:32.707Z,6.60
2018-01-08T04:39:00.710Z,6.35
2018-01-08T04:41:28.712Z,6.55
2018-01-08T04:43:56.676Z,8.05
2018-01-08T04:46:24.641Z,7.07
2018-01-08T04:48:52.685Z,7.30
2018-01-08T04:51:20.699Z,6.95
2018-01-08T04:53:48.719Z,6.43
2018-01-08T04:56:16.721Z,6.90
2018-01-08T04:58:44.765Z,6.20
2018-01-08T05:01:12.796Z,7.25
2018-01-08T05:03:40.791Z,7.00
2018-01-08T05:06:08.798Z,7.15
2018-01-08T05:08:36.807Z,6.57
2018-01-08T05:11:04.902Z,7.18
2018-01-08T05:13:32.918Z,8.05
2018-01-08T05:16:00.950Z,7.97
2018-01-08T05:18:28.952Z,8.63
2018-01-08T05:20:56.943Z,8.20
2018-01-08T05:23:24.985Z,8.25
2018-01-08T05:25:53.059Z,6.60
2018-01-08T05:28:21.106Z,7.85
2018-01-08T05:30:49.099Z,8.50
2018-01-08T05:33:17.132Z,8.65
2018-01-08T05:35:45.154Z,7.05
2018-01-08T05:38:13.171Z,6.93
2018-01-08T05:40:41.186Z,8.25
2018-01-08T05:43:09.192Z,8.60
2018-01-08T05:45:37.179Z,8.60
2018-01-08T05:48:05.220Z,9.10
2018-01-08T05:50:33.241Z,8.20
2018-01-08T05:53:01.294Z,9.07
2018-01-08T05:55:29.347Z,7.50
2018-01-08T05:57:57.345Z,7.97
2018-01-08T06:00:25.344Z,8.30
2018-01-08T06:02:53.362Z,7.75
2018-01-08T06:05:21.377Z,7.68
2018-01-08T06:07:49.417Z,9.60
2018-01-08T06:10:17.414Z,6.87
2018-01-08T06:12:45.408Z,8.80
2018-01-08T06:15:13.444Z,7.70
2018-01-08T06:17:41.459Z,6.40
2018-01-08T06:20:09.465Z,7.43
2018-01-08T06:22:37.513Z,8.30
2018-01-08T06:25:05.530Z,7.62
2018-01-08T06:27:33.580Z,8.65
2018-01-08T06:30:01.626Z,7.20
2018-01-08T06:32:29.633Z,7.72
2018-01-08T06:34:57.681Z,7.30
2018-01-08T06:37:25.704Z,6.68
2018-01-08T06:39:53.722Z,8.10
2018-01-08T06:42:21.837Z,8.23
2018-01-08T06:44:49.859Z,9.18
2018-01-08T06:47:17.861Z,9.35
2018-01-08T06:49:45.866Z,8.80
2018-01-08T06:52:13.948Z,7.93
2018-01-08T06:54:41.924Z,9.15
2018-01-08T06:57:09.943Z,7.82
2018-01-08T06:59:37.943Z,7.65
2018-01-08T07:02:05.920Z,9.13
2018-01-08T07:04:33.914Z,8.30
2018-01-08T07:07:01.906Z,8.43
2018-01-08T07:09:29.920Z,9.68
2018-01-08T07:11:57.933Z,7.93
2018-01-08T07:14:25.993Z,8.57
2018-01-08T07:16:54.014Z,9.38
2018-01-08T07:19:22.086Z,7.50
2018-01-08T07:21:51.148Z,9.02
2018-01-08T07:24:19.141Z,9.00
2018-01-08T07:26:47.115Z,9.85
2018-01-08T07:29:15.100Z,10.13
2018-01-08T07:31:43.110Z,9.63
2018-01-08T07:34:11.096Z,9.15
2018-01-08T07:36:39.186Z,8.75
2018-01-08T07:39:07.169Z,9.50
2018-01-08T07:41:35.190Z,10.35
2018-01-08T07:44:03.187Z,9.30
2018-01-08T07:46:31.384Z,7.80
2018-01-08T07:48:59.499Z,9.05
2018-01-08T07:51:27.528Z,10.20
2018-01-08T07:53:55.531Z,9.55
2018-01-08T07:56:23.539Z,8.57
2018-01-08T07:58:51.654Z,9.40
2018-01-08T08:01:19.713Z,9.38
2018-01-08T08:03:47.707Z,8.52
2018-01-08T08:06:15.854Z,8.45
2018-01-08T08:08:43.900Z,8.75
2018-01-08T08:11:11.896Z,10.15
2018-01-08T08:13:39.921Z,9.57
2018-01-08T08:16:07.923Z,8.05
2018-01-08T08:18:35.961Z,8.60
2018-01-08T08:21:03.961Z,9.80
2018-01-08T08:23:31.955Z,8.75
2018-01-08T08:25:59.969Z,9.52
2018-01-08T08:28:27.949Z,9.30
2018-01-08T08:30:55.922Z,9.23
2018-01-08T08:33:23.977Z,8.60
2018-01-08T08:35:51.993Z,8.68
2018-01-08T08:38:20.048Z,9.18
2018-01-08T08:40:48.071Z,8.95
2018-01-08T08:43:16.099Z,9.65
2018-01-08T08:45:44.284Z,9.15
2018-01-08T08:48:12.553Z,11.52
2018-01-08T08:50:40.547Z,9.65
2018-01-08T08:53:08.553Z,8.57
2018-01-08T08:55:36.533Z,9.35
2018-01-08T08:58:04.582Z,9.20
2018-01-08T09:00:32.574Z,9.45
2018-01-08T09:03:00.614Z,10.82
2018-01-08T09:05:28.624Z,9.70
2018-01-08T09:07:56.659Z,9.55
2018-01-08T09:10:24.676Z,9.85
2018-01-08T09:12:52.662Z,8.85
2018-01-08T09:15:20.721Z,8.77
2018-01-08T09:17:48.724Z,10.35
2018-01-08T09:20:16.774Z,9.20
2018-01-08T09:22:44.809Z,8.65
2018-01-08T09:25:12.768Z,8.98
2018-01-08T09:27:40.731Z,9.20
2018-01-08T09:30:08.731Z,9.88
2018-01-08T09:32:36.731Z,9.80
2018-01-08T09:35:04.754Z,10.20
2018-01-08T09:37:32.785Z,8.93
2018-01-08T09:40:00.802Z,9.63
2018-01-08T09:42:28.814Z,9.75
2018-01-08T09:44:56.817Z,10.20
2018-01-08T09:47:24.825Z,9.48
2018-01-08T09:49:52.804Z,9.30
2018-01-08T09:52:20.812Z,9.25
2018-01-08T09:54:48.768Z,9.27
2018-01-08T09:57:16.754Z,8.95
2018-01-08T09:59:44.783Z,9.75
2018-01-08T10:02:15.520Z,9.35
2018-01-08T10:04:49.799Z,9.20
2018-01-08T10:07:24.276Z,9.68
2018-01-08T10:09:58.448Z,9.55
2018-01-08T10:12:32.540Z,9.75
2018-01-08T10:15:06.740Z,9.70
2018-01-08T10:17:40.845Z,10.30
2018-01-08T10:20:08.935Z,10.23
2018-01-08T10:22:36.890Z,9.95
2018-01-08T10:25:04.868Z,10.40
2018-01-08T10:27:32.897Z,10.13
2018-01-08T10:30:00.913Z,8.45
2018-01-08T10:32:28.948Z,10.00
2018-01-08T10:34:56.925Z,10.50
2018-01-08T10:37:24.868Z,8.65
2018-01-08T10:39:52.783Z,10.52
2018-01-08T10:42:26.853Z,8.85
2018-01-08T10:45:00.807Z,9.55
2018-01-08T10:47:34.966Z,9.05
2018-01-08T10:50:08.987Z,9.82
2018-01-08T10:52:36.994Z,10.43
2018-01-08T10:55:05.954Z,7.47
2018-01-08T10:57:33.863Z,9.23
2018-01-08T11:00:01.807Z,9.95
2018-01-08T11:02:35.967Z,8.88
2018-01-08T11:05:03.895Z,9.48
2018-01-08T11:07:31.791Z,10.73
2018-01-08T11:09:59.707Z,10.68
2018-01-08T11:12:27.618Z,9.93
2018-01-08T11:14:55.553Z,10.05
2018-01-08T11:17:23.481Z,10.13
2018-01-08T11:19:51.386Z,10.75
2018-01-08T11:22:19.295Z,9.80
2018-01-08T11:24:48.308Z,9.73
2018-01-08T11:27:16.245Z,10.85
2018-01-08T11:29:44.188Z,11.20
2018-01-08T11:32:12.123Z,10.40
2018-01-08T11:34:40.045Z,9.50
2018-01-08T11:37:07.969Z,10.10
2018-01-08T11:39:37.000Z,9.60
2018-01-08T11:42:04.946Z,8.93
2018-01-08T11:44:32.847Z,11.65
2018-01-08T11:47:00.754Z,11.98
2018-01-08T11:49:28.698Z,10.90
2018-01-08T11:51:56.622Z,10.73
2018-01-08T11:54:24.556Z,9.57
2018-01-08T11:56:52.480Z,9.57
2018-01-08T11:59:20.403Z,9.00
2018-01-08T12:01:48.363Z,9.23
2018-01-08T12:04:16.280Z,10.20
2018-01-08T12:06:44.175Z,9.52
2018-01-08T12:09:12.090Z,10.13
2018-01-08T12:11:40.037Z,10.02
2018-01-08T12:14:07.967Z,10.63
2018-01-08T12:16:35.895Z,9.07
2018-01-08T12:19:03.817Z,9.60
2018-01-08T12:21:31.719Z,10.07
2018-01-08T12:23:59.649Z,9.93
2018-01-08T12:26:27.570Z,9.00
2018-01-08T12:28:56.575Z,8.65
2018-01-08T12:31:24.504Z,9.85
2018-01-08T12:33:52.441Z,9.27
2018-01-08T12:36:20.351Z,8.00
2018-01-08T12:38:48.292Z,8.27
2018-01-08T12:41:16.203Z,9.00
2018-01-08T12:43:44.114Z,9.80
2018-01-08T12:46:13.123Z,10.07
2018-01-08T12:48:41.031Z,9.95
2018-01-08T12:51:08.939Z,9.52
2018-01-08T12:53:36.831Z,8.75
2018-01-08T12:56:04.758Z,9.90
2018-01-08T12:58:33.727Z,10.05
2018-01-08T13:01:01.651Z,9.30
2018-01-08T13:03:29.566Z,8.80
2018-01-08T13:05:57.485Z,8.90
2018-01-08T13:08:25.437Z,8.55
2018-01-08T13:10:53.362Z,8.70
2018-01-08T13:13:21.275Z,10.63
2018-01-08T13:15:49.185Z,9.38
2018-01-08T13:18:18.108Z,9.40
2018-01-08T13:20:46.061Z,8.88
2018-01-08T13:23:13.989Z,9.43
2018-01-08T13:25:41.934Z,10.00
2018-01-08T13:28:09.864Z,8.32
2018-01-08T13:30:37.771Z,8.40
2018-01-08T13:33:05.741Z,8.18
2018-01-08T13:35:33.692Z,8.32
2018-01-08T13:38:01.609Z,8.25
2018-01-08T13:40:29.543Z,8.30
2018-01-08T13:42:57.462Z,9.43
2018-01-08T13:45:25.397Z,8.98
2018-01-08T13:47:53.344Z,8.55
2018-01-08T13:50:21.273Z,8.40
2018-01-08T13:52:49.212Z,8.73
2018-01-08T13:55:17.149Z,8.82
2018-01-08T13:57:45.079Z,9.00
2018-01-08T14:00:12.986Z,10.73
2018-01-08T14:02:40.920Z,8.85
2018-01-08T14:05:08.845Z,8.82
2018-01-08T14:07:37.843Z,9.93
2018-01-08T14:10:05.790Z,8.48
2018-01-08T14:12:33.709Z,8.30
2018-01-08T14:15:01.640Z,8.07
2018-01-08T14:17:29.566Z,8.00
2018-01-08T14:19:57.503Z,8.60
2018-01-08T14:22:26.444Z,10.20
2018-01-08T14:24:54.355Z,8.10
2018-01-08T14:27:22.274Z,7.43
2018-01-08T14:29:50.208Z,8.43
2018-01-08T14:32:18.162Z,9.50
2018-01-08T14:34:46.067Z,9.45
2018-01-08T14:37:13.977Z,8.52
2018-01-08T14:39:41.924Z,9.30
2018-01-08T14:42:09.848Z,8.80
2018-01-08T14:44:37.762Z,8.82
2018-01-08T14:47:05.675Z,8.70
2018-01-08T14:49:33.578Z,9.23
2018-01-08T14:52:01.493Z,9.70
2018-01-08T14:54:29.446Z,8.93
2018-01-08T14:56:57.384Z,8.00
2018-01-08T14:59:25.310Z,8.27
2018-01-08T15:01:53.246Z,9.10
2018-01-08T15:04:21.223Z,8.80
2018-01-08T15:06:49.168Z,9.20
2018-01-08T15:09:17.087Z,8.40
2018-01-08T15:11:45.019Z,9.77
2018-01-08T15:14:12.931Z,8.73
2018-01-08T15:16:40.878Z,9.70
2018-01-08T15:19:08.836Z,9.48
2018-01-08T15:21:36.774Z,9.05
2018-01-08T15:24:04.695Z,8.40
2018-01-08T15:26:32.631Z,8.82
2018-01-08T15:29:00.528Z,8.35
2018-01-08T15:31:28.453Z,8.60
2018-01-08T15:33:56.347Z,9.45
2018-01-08T15:36:24.285Z,9.50
2018-01-08T15:38:52.182Z,8.52
2018-01-08T15:41:20.117Z,9.13
2018-01-08T15:43:48.008Z,7.25
2018-01-08T15:46:15.956Z,9.18
2018-01-08T15:48:43.856Z,9.68
2018-01-08T15:51:11.767Z,8.13
2018-01-08T15:53:39.699Z,9.70
2018-01-08T15:56:07.609Z,9.02
2018-01-08T15:58:35.498Z,9.85
2018-01-08T16:01:03.438Z,9.05
2018-01-08T16:03:31.340Z,9.52
2018-01-08T16:06:00.341Z,8.10
2018-01-08T16:08:28.251Z,8.65
2018-01-08T16:10:56.168Z,9.32
2018-01-08T16:13:24.093Z,9.20
2018-01-08T16:15:51.994Z,8.02
2018-01-08T16:18:19.921Z,9.10
2018-01-08T16:20:47.857Z,8.40
2018-01-08T16:23:15.747Z,9.57
2018-01-08T16:25:43.655Z,8.32
2018-01-08T16:28:11.547Z,9.57
2018-01-08T16:30:39.485Z,9.30
2018-01-08T16:33:07.404Z,8.80
2018-01-08T16:35:35.323Z,8.05
2018-01-08T16:38:03.307Z,8.77
2018-01-08T16:40:32.321Z,8.57
2018-01-08T16:43:01.367Z,8.85
2018-01-08T16:45:29.305Z,9.02
2018-01-08T16:47:58.247Z,8.95
2018-01-08T16:50:26.163Z,10.07
2018-01-08T16:52:54.090Z,10.00
2018-01-08T16:55:22.017Z,8.50
2018-01-08T16:57:49.941Z,7.75
2018-01-08T17:00:17.906Z,8.73
2018-01-08T17:02:45.868Z,8.05
2018-01-08T17:05:13.803Z,9.68
2018-01-08T17:07:41.738Z,8.43
2018-01-08T17:10:09.668Z,9.57
2018-01-08T17:12:37.603Z,8.85
2018-01-08T17:15:05.561Z,8.48
2018-01-08T17:17:33.547Z,8.10
2018-01-08T17:20:01.461Z,8.93
2018-01-08T17:22:29.376Z,8.75
2018-01-08T17:24:57.282Z,7.80
2018-01-08T17:27:25.212Z,9.65
2018-01-08T17:29:53.153Z,7.68
2018-01-08T17:32:21.068Z,7.60
2018-01-08T17:34:49.001Z,8.95
2018-01-08T17:37:16.911Z,8.52
2018-01-08T17:39:44.814Z,9.65
2018-01-08T17:42:12.729Z,7.95
2018-01-08T17:44:40.644Z,8.52
2018-01-08T17:47:08.573Z,9.45
2018-01-08T17:49:36.483Z,9.25
2018-01-08T17:52:04.463Z,8.82
2018-01-08T17:54:32.384Z,8.48
2018-01-08T17:57:00.321Z,8.77
2018-01-08T17:59:28.239Z,8.48
2018-01-08T18:01:56.147Z,7.55
2018-01-08T18:04:24.058Z,8.98
2018-01-08T18:06:51.984Z,8.35
2018-01-08T18:09:20.021Z,7.90
2018-01-08T18:11:47.957Z,8.57
2018-01-08T18:14:16.049Z,8.98
2018-01-08T18:16:43.997Z,8.00
2018-01-08T18:19:11.940Z,8.43
2018-01-08T18:21:39.857Z,9.10
2018-01-08T18:24:07.928Z,8.55
2018-01-08T18:26:35.853Z,9.32
2018-01-08T18:29:03.750Z,8.40
2018-01-08T18:31:31.651Z,8.88
2018-01-08T18:33:59.580Z,8.05
2018-01-08T18:36:27.498Z,9.10
2018-01-08T18:38:55.395Z,8.50
2018-01-08T18:41:23.414Z,8.65
2018-01-08T18:43:51.307Z,8.55
2018-01-08T18:46:19.239Z,7.32
2018-01-08T18:48:47.181Z,8.52
2018-01-08T18:51:15.074Z,7.93
2018-01-08T18:53:42.970Z,7.35
2018-01-08T18:56:10.902Z,8.20
2018-01-08T18:58:38.821Z,9.02
2018-01-08T19:01:06.761Z,8.05
2018-01-08T19:03:34.679Z,8.15
2018-01-08T19:06:02.597Z,9.15
2018-01-08T19:08:30.512Z,9.40
2018-01-08T19:10:58.452Z,8.60
2018-01-08T19:13:26.369Z,7.87
2018-01-08T19:15:54.278Z,8.35
2018-01-08T19:18:22.264Z,8.55
2018-01-08T19:20:50.181Z,7.65
2018-01-08T19:23:18.116Z,9.10
2018-01-08T19:25:46.059Z,8.38
2018-01-08T19:28:13.988Z,7.78
2018-01-08T19:30:41.902Z,7.12
2018-01-08T19:33:09.814Z,6.70
2018-01-08T19:35:37.890Z,8.13
2018-01-08T19:38:06.075Z,7.62
2018-01-08T19:40:34.043Z,8.60
2018-01-08T19:43:01.954Z,8.73
2018-01-08T19:45:29.884Z,8.07
2018-01-08T19:47:58.859Z,7.47
2018-01-08T19:50:26.759Z,9.13
2018-01-08T19:52:54.705Z,7.78
2018-01-08T19:55:22.637Z,7.30
2018-01-08T19:57:50.585Z,8.60
2018-01-08T20:00:18.492Z,8.48
2018-01-08T20:02:46.599Z,7.80
2018-01-08T20:05:14.566Z,7.47
2018-01-08T20:07:42.476Z,7.53
2018-01-08T20:10:10.651Z,7.97
2018-01-08T20:12:38.634Z,7.97
2018-01-08T20:15:06.654Z,7.05
2018-01-08T20:17:34.580Z,6.87
2018-01-08T20:20:02.528Z,8.70
2018-01-08T20:22:30.473Z,7.05
2018-01-08T20:24:58.407Z,7.40
2018-01-08T20:27:26.334Z,8.52
2018-01-08T20:29:54.307Z,7.80
2018-01-08T20:32:22.196Z,7.62
2018-01-08T20:34:50.197Z,8.25
2018-01-08T20:37:18.106Z,8.23
2018-01-08T20:39:46.117Z,7.57
2018-01-08T20:42:14.090Z,7.60
2018-01-08T20:44:42.065Z,8.18
2018-01-08T20:47:09.992Z,8.27
2018-01-08T20:49:37.950Z,7.35
2018-01-08T20:52:06.079Z,7.62
2018-01-08T20:54:34.042Z,7.90
2018-01-08T20:57:01.972Z,7.00
2018-01-08T20:59:29.891Z,6.32
2018-01-08T21:01:57.828Z,6.82
2018-01-08T21:04:25.793Z,7.03
2018-01-08T21:06:53.687Z,6.87
2018-01-08T21:09:21.611Z,7.80
2018-01-08T21:11:49.527Z,7.45
2018-01-08T21:14:18.548Z,7.10
2018-01-08T21:16:46.451Z,6.78
2018-01-08T21:19:14.393Z,6.20
2018-01-08T21:21:42.324Z,7.82
2018-01-08T21:24:10.207Z,6.93
2018-01-08T21:26:38.529Z,7.25
2018-01-08T21:29:06.454Z,6.97
2018-01-08T21:31:34.367Z,6.62
2018-01-08T21:34:02.323Z,6.90
2018-01-08T21:36:30.257Z,7.47
2018-01-08T21:38:58.164Z,6.07
2018-01-08T21:41:26.094Z,6.50
2018-01-08T21:43:54.023Z,7.30
2018-01-08T21:46:21.981Z,6.50
2018-01-08T21:48:49.917Z,7.28
2018-01-08T21:51:18.877Z,7.18
2018-01-08T21:53:46.802Z,8.75
2018-01-08T21:56:14.729Z,7.10
2018-01-08T21:58:42.671Z,7.35
2018-01-08T22:01:10.639Z,6.97
2018-01-08T22:03:38.601Z,7.22
2018-01-08T22:06:06.513Z,6.37
2018-01-08T22:08:35.441Z,6.75
2018-01-08T22:11:03.368Z,6.95
2018-01-08T22:13:31.301Z,6.40
2018-01-08T22:15:59.186Z,7.15
2018-01-08T22:18:27.121Z,7.68
2018-01-08T22:20:55.025Z,6.62
2018-01-08T22:23:22.936Z,6.62
2018-01-08T22:25:50.869Z,6.70
2018-01-08T22:28:18.807Z,6.75
2018-01-08T22:30:46.724Z,6.80
2018-01-08T22:33:14.643Z,6.75
2018-01-08T22:35:42.547Z,6.07
2018-01-08T22:38:10.454Z,5.75
2018-01-08T22:40:38.372Z,5.75
2018-01-08T22:43:06.283Z,7.10
2018-01-08T22:45:34.212Z,7.05
2018-01-08T22:48:02.146Z,5.95
2018-01-08T22:50:30.058Z,5.78
2018-01-08T22:52:57.976Z,5.90
2018-01-08T22:55:25.891Z,6.37
2018-01-08T22:57:53.810Z,6.40
2018-01-08T23:00:21.738Z,6.85
2018-01-08T23:02:49.681Z,6.85
2018-01-08T23:05:17.578Z,6.07
2018-01-08T23:07:45.495Z,7.32
2018-01-08T23:10:13.414Z,6.25
2018-01-08T23:12:41.335Z,5.90
2018-01-08T23:15:09.227Z,7.65
2018-01-08T23:17:37.151Z,6.05
2018-01-08T23:20:05.042Z,6.85
2018-01-08T23:22:32.950Z,6.00
2018-01-08T23:25:00.879Z,5.90
2018-01-08T23:27:28.793Z,5.57
2018-01-08T23:29:56.982Z,6.65
2018-01-08T23:32:26.355Z,6.50
2018-01-08T23:34:54.498Z,6.82
2018-01-08T23:37:22.433Z,6.32
2018-01-08T23:39:50.356Z,6.72
2018-01-08T23:42:18.270Z,6.22
2018-01-08T23:44:46.184Z,6.85
2018-01-08T23:47:14.103Z,6.05
2018-01-08T23:49:42.020Z,6.10
2018-01-08T23:52:09.935Z,6.07
2018-01-08T23:54:37.845Z,6.65
2018-01-08T23:57:05.739Z,6.82
2018-01-08T23:59:33.632Z,5.82
